Portada
METAR-TAF:

METAR-TAF

Aeropuertos :

Aeropuerto Internacional de Jacksons

Port Moresby, Papúa Nueva Guinea

latitud: 09-26S, longitud: 147-13E, altitud: 38 m

Observación

El informe se hizo hace 43 minutos, a las 10:00 UTC
Viento 20 kt del sur-sureste
Temperatura 25°C
Humedad 83%
Presión 1011 hPa
Visibilidad 10 km o más
Escasas nubes a una altura de 5000 ft
Escasas nubes a una altura de 10000 ft

METAR: AYPY 051000Z 15020KT 9999 FEW050 FEW100 25/22 Q1011

Hora: 20:43 (10:43 UTC)

Pronóstico

El informe se hizo hace 12 horas y 36 minutos, a las 22:07 UTC
Pronóstico válido del 05 a las 00 UTC al 06 a las 00 UTC
Viento 15 kt del sur-sureste con ráfagas de 25 kt
Visibilidad: 1010 m
Nubes dispersas a una altura de 1800 ft

TAF: AYPY 042207Z 0500/0600 15015G25KT 9999 SCT018 T 27 29 28 26 Q 1012 1011 1009 1010

Observaciones y pronósticos meteorológicos de más de 4000 aeropuertos (mensajes METAR y TAF).

Los puntos amarillos y rojos representan las estaciones disponibles.

Ponga el ratón en el punto deseado para ver el nombre de la estación.

Haga clic para ver las observaciones y los pronósticos meteorológicos.

Para cambiar el mapa : haga clic en los botones verdes con una cruz de color negro para hacer un zoom, en el botón verde con un guión para alejar o en las flechas verdes para mapas adyacentes.


METAR-TAF: